Time;durP1;ratioP1;P1;durP2;ratioP2;P2;SDS_P1;SDS_P2;PMS_P1;PMS_P2;Temp;Humidity;BMP_temperature;BMP_pressure;BME280_temperature;BME280_humidity;BME280_pressure;Samples;Min_cycle;Max_cycle;Signal;HPM_P1;HPM_P2
2023/09/01 00:02:25;;;;;;;3.10;2.80;;;;;;;18.53;100.00;99766.96;104841;1259;60629;-53
2023/09/01 00:05:02;;;;;;;2.40;2.30;;;;;;;18.54;100.00;99773.63;105552;1258;72731;-53
2023/09/01 00:07:30;;;;;;;2.50;2.30;;;;;;;18.53;100.00;99772.05;104909;1259;65655;-54
2023/09/01 00:09:57;;;;;;;3.70;2.70;;;;;;;18.53;100.00;99776.98;104926;1259;70450;-54
2023/09/01 00:12:25;;;;;;;3.00;2.80;;;;;;;18.54;100.00;99782.52;104963;1253;60538;-54
2023/09/01 00:14:53;;;;;;;3.40;3.10;;;;;;;18.55;100.00;99783.55;104959;1259;62140;-53
2023/09/01 00:17:20;;;;;;;3.90;2.40;;;;;;;18.56;100.00;99780.75;104958;1259;73806;-51
2023/09/01 00:19:48;;;;;;;4.20;2.50;;;;;;;18.57;100.00;99781.02;105480;1259;66163;-53
2023/09/01 00:22:15;;;;;;;4.60;2.20;;;;;;;18.58;100.00;99784.63;105065;1257;72451;-53
2023/09/01 00:24:42;;;;;;;2.40;1.80;;;;;;;18.56;100.00;99789.64;104939;1259;62815;-52
2023/09/01 00:27:10;;;;;;;3.30;2.80;;;;;;;18.54;100.00;99795.27;104879;1254;60414;-55
2023/09/01 00:29:37;;;;;;;2.50;2.40;;;;;;;18.52;100.00;99801.58;104824;1260;72459;-55
2023/09/01 00:32:05;;;;;;;2.80;2.60;;;;;;;18.51;100.00;99806.42;104868;1258;65680;-53
2023/09/01 00:34:33;;;;;;;2.30;2.10;;;;;;;18.51;100.00;99813.62;109053;1253;72760;-54
2023/09/01 00:37:00;;;;;;;3.90;3.30;;;;;;;18.53;100.00;99818.41;108924;1254;60386;-56
2023/09/01 00:39:28;;;;;;;7.20;2.70;;;;;;;18.54;100.00;99812.49;108998;1254;58734;-55
2023/09/01 00:41:55;;;;;;;3.00;1.80;;;;;;;18.56;100.00;99804.52;109134;1254;74297;-52
2023/09/01 00:44:23;;;;;;;2.00;1.70;;;;;;;18.56;100.00;99797.80;108993;1259;66960;-55
2023/09/01 00:46:50;;;;;;;2.00;1.80;;;;;;;18.55;100.00;99800.25;109085;1254;73291;-55
2023/09/01 00:49:18;;;;;;;2.90;2.70;;;;;;;18.55;100.00;99794.83;109056;1254;62083;-55
2023/09/01 00:51:46;;;;;;;2.60;2.40;;;;;;;18.54;100.00;99792.90;108917;1254;60416;-55
2023/09/01 00:54:14;;;;;;;2.80;2.50;;;;;;;18.51;100.00;99791.52;108896;1259;73315;-55
2023/09/01 00:56:42;;;;;;;2.40;2.20;;;;;;;18.50;100.00;99783.77;109016;1259;65786;-53
2023/09/01 00:59:09;;;;;;;2.40;2.30;;;;;;;18.48;100.00;99778.42;108852;1254;72585;-56
2023/09/01 01:01:36;;;;;;;5.70;2.20;;;;;;;18.48;100.00;99775.00;108874;1255;60733;-52
2023/09/01 01:04:07;;;;;;;3.30;2.10;;;;;;;18.48;100.00;99780.64;108639;1255;58204;-53
2023/09/01 01:07:06;;;;;;;2.00;1.90;;;;;;;18.47;100.00;99786.54;108522;1255;73871;-54
2023/09/01 01:10:01;;;;;;;2.70;2.50;;;;;;;18.43;100.00;99791.36;105029;1261;65657;-53
2023/09/01 01:12:38;;;;;;;2.90;2.60;;;;;;;18.41;100.00;99795.56;104560;1260;73676;-54
2023/09/01 01:15:09;;;;;;;3.10;2.70;;;;;;;18.38;100.00;99795.11;104775;1259;60525;-56
2023/09/01 01:17:38;;;;;;;4.50;3.10;;;;;;;18.34;100.00;99796.88;104967;1258;60519;-55
2023/09/01 01:20:15;;;;;;;3.40;2.50;;;;;;;18.32;100.00;99796.86;104939;1254;74303;-54
2023/09/01 01:22:48;;;;;;;3.80;2.90;;;;;;;18.31;100.00;99796.21;104769;1260;65968;-53
2023/09/01 01:25:16;;;;;;;3.30;3.00;;;;;;;18.28;100.00;99796.77;104957;1260;73633;-55
2023/09/01 01:27:43;;;;;;;3.10;2.90;;;;;;;18.28;100.00;99799.02;104753;1260;60479;-50
2023/09/01 01:30:14;;;;;;;2.90;2.70;;;;;;;18.27;100.00;99799.24;104799;1255;60470;-53
2023/09/01 01:32:41;;;;;;;2.90;2.50;;;;;;;18.26;100.00;99801.14;105049;1254;73822;-51
2023/09/01 01:35:18;;;;;;;2.80;2.70;;;;;;;18.25;100.00;99805.75;104898;1259;65519;-50
2023/09/01 01:37:53;;;;;;;4.80;3.00;;;;;;;18.26;100.00;99805.90;104753;1259;71510;-51
2023/09/01 01:40:21;;;;;;;2.80;2.60;;;;;;;18.26;100.00;99808.61;104882;1254;60792;-50
2023/09/01 01:42:48;;;;;;;2.80;2.60;;;;;;;18.25;100.00;99797.92;104907;1259;60693;-51
2023/09/01 01:45:20;;;;;;;2.80;2.60;;;;;;;18.23;100.00;99789.92;104659;1261;73834;-49
2023/09/01 01:47:49;;;;;;;3.50;3.30;;;;;;;18.20;100.00;99787.98;104623;1257;67370;-51
2023/09/01 01:50:17;;;;;;;2.90;2.70;;;;;;;18.18;100.00;99790.21;107686;1259;72677;-52
2023/09/01 01:52:44;;;;;;;3.50;3.20;;;;;;;18.15;100.00;99789.06;104957;1259;61688;-50
2023/09/01 01:55:11;;;;;;;2.60;2.50;;;;;;;18.15;100.00;99785.45;104810;1254;60525;-50
2023/09/01 01:57:40;;;;;;;3.40;3.10;;;;;;;18.12;100.00;99782.81;105141;1254;72649;-49
2023/09/01 02:00:11;;;;;;;3.90;3.50;;;;;;;18.08;100.00;99787.47;105053;1255;66809;-47
2023/09/01 02:02:42;;;;;;;3.20;2.90;;;;;;;18.04;100.00;99791.77;105015;1261;71758;-49
2023/09/01 02:05:10;;;;;;;6.10;3.20;;;;;;;18.00;100.00;99799.55;106151;1257;60567;-51
2023/09/01 02:07:37;;;;;;;3.20;3.00;;;;;;;17.98;100.00;99800.45;105379;1260;60432;-46
2023/09/01 02:10:08;;;;;;;3.00;2.80;;;;;;;17.95;100.00;99802.69;105043;1255;73844;-49
2023/09/01 02:12:35;;;;;;;3.20;2.80;;;;;;;17.94;100.00;99804.40;105348;1257;66899;-48
2023/09/01 02:15:03;;;;;;;3.50;2.60;;;;;;;17.93;100.00;99809.93;104945;1261;71196;-49
2023/09/01 02:17:31;;;;;;;4.20;3.80;;;;;;;17.91;100.00;99812.42;104916;1258;61677;-49
2023/09/01 02:19:58;;;;;;;3.30;3.00;;;;;;;17.91;100.00;99811.52;105074;1254;60253;-53
2023/09/01 02:22:25;;;;;;;3.20;3.00;;;;;;;17.91;100.00;99815.15;105044;1258;74502;-48
2023/09/01 02:24:52;;;;;;;3.70;3.40;;;;;;;17.93;100.00;99820.48;104923;1254;68876;-53
2023/09/01 02:27:20;;;;;;;2.60;2.40;;;;;;;17.94;100.00;99820.17;105078;1254;71619;-51
2023/09/01 02:29:47;;;;;;;3.50;3.30;;;;;;;17.96;100.00;99818.23;104944;1254;61824;-48
2023/09/01 02:32:14;;;;;;;2.80;2.50;;;;;;;17.96;100.00;99822.73;104821;1259;60661;-48
2023/09/01 02:34:42;;;;;;;3.10;2.90;;;;;;;17.96;100.00;99823.10;104741;1255;72979;-48
2023/09/01 02:37:09;;;;;;;2.80;2.60;;;;;;;17.94;100.00;99823.48;105032;1262;68452;-50
2023/09/01 02:39:37;;;;;;;3.80;3.30;;;;;;;17.92;100.00;99820.55;105208;1254;71296;-47
2023/09/01 02:42:05;;;;;;;3.30;3.00;;;;;;;17.89;100.00;99820.71;104906;1260;60554;-54
2023/09/01 02:44:32;;;;;;;3.30;3.10;;;;;;;17.86;100.00;99818.33;104931;1258;60320;-48
2023/09/01 02:46:59;;;;;;;6.80;3.20;;;;;;;17.83;100.00;99817.98;104829;1267;72819;-51
2023/09/01 02:49:27;;;;;;;3.10;2.90;;;;;;;17.81;100.00;99814.98;104943;1254;67094;-47
2023/09/01 02:51:54;;;;;;;3.40;2.90;;;;;;;17.79;100.00;99816.08;105062;1259;71208;-48
2023/09/01 02:54:21;;;;;;;3.30;2.90;;;;;;;17.76;100.00;99817.23;104935;1254;61418;-49
2023/09/01 02:56:49;;;;;;;2.60;2.40;;;;;;;17.74;100.00;99817.53;104906;1254;60506;-48
2023/09/01 02:59:17;;;;;;;2.90;2.80;;;;;;;17.73;100.00;99817.78;105209;1254;73838;-48
2023/09/01 03:01:44;;;;;;;8.70;2.50;;;;;;;17.72;100.00;99818.09;104738;1260;65877;-50
2023/09/01 03:04:11;;;;;;;3.10;2.90;;;;;;;17.69;100.00;99817.95;104761;1259;72688;-49
2023/09/01 03:06:38;;;;;;;3.20;2.60;;;;;;;17.68;100.00;99819.84;104760;1260;62327;-51
2023/09/01 03:09:09;;;;;;;3.40;3.20;;;;;;;17.68;100.00;99825.30;104841;1254;60363;-50
2023/09/01 03:11:37;;;;;;;4.40;2.80;;;;;;;17.70;100.00;99832.04;104783;1254;73788;-47
2023/09/01 03:14:04;;;;;;;4.40;3.50;;;;;;;17.72;100.00;99835.16;105115;1257;67882;-51
2023/09/01 03:16:32;;;;;;;3.40;3.20;;;;;;;17.72;100.00;99836.18;105417;1257;73478;-51
2023/09/01 03:18:59;;;;;;;4.20;3.70;;;;;;;17.74;100.00;99839.12;104469;1254;60779;-50
2023/09/01 03:21:30;;;;;;;4.60;3.50;;;;;;;17.76;100.00;99843.77;104838;1261;60512;-47
2023/09/01 03:23:58;;;;;;;3.50;3.20;;;;;;;17.77;100.00;99850.40;105758;1255;72779;-48
2023/09/01 03:26:28;;;;;;;5.10;3.60;;;;;;;17.77;100.00;99853.45;104440;1254;68114;-53
2023/09/01 03:28:55;;;;;;;3.90;3.50;;;;;;;17.77;100.00;99851.09;108865;1259;72421;-50
2023/09/01 03:31:23;;;;;;;3.10;2.90;;;;;;;17.76;100.00;99854.95;109102;1254;61664;-49
2023/09/01 03:33:50;;;;;;;3.60;3.30;;;;;;;17.74;100.00;99852.04;107835;1259;59789;-54
2023/09/01 03:36:18;;;;;;;4.00;3.20;;;;;;;17.72;100.00;99852.89;108874;1253;72545;-54
2023/09/01 03:38:47;;;;;;;3.30;3.10;;;;;;;17.73;100.00;99855.36;109064;1254;65618;-49
2023/09/01 03:41:14;;;;;;;4.80;3.40;;;;;;;17.74;100.00;99851.10;109015;1254;72636;-50
2023/09/01 03:43:42;;;;;;;3.90;2.80;;;;;;;17.77;100.00;99854.02;108989;1256;60660;-50
2023/09/01 03:46:09;;;;;;;3.40;3.10;;;;;;;17.78;100.00;99854.30;109075;1254;58761;-48
2023/09/01 03:48:37;;;;;;;4.20;3.80;;;;;;;17.79;100.00;99853.43;108883;1254;72724;-49
2023/09/01 03:51:06;;;;;;;5.50;3.50;;;;;;;17.83;100.00;99854.67;108996;1254;67263;-49
2023/09/01 03:53:33;;;;;;;4.20;3.80;;;;;;;17.85;100.00;99857.91;108831;1254;72624;-51
2023/09/01 03:56:05;;;;;;;3.00;2.80;;;;;;;17.86;100.00;99858.18;108988;1253;61624;-53
2023/09/01 03:58:35;;;;;;;4.00;3.70;;;;;;;17.87;100.00;99862.27;109004;1254;59575;-48
2023/09/01 04:01:08;;;;;;;8.50;3.30;;;;;;;17.90;100.00;99864.25;108959;1254;72962;-48
2023/09/01 04:03:35;;;;;;;3.40;3.10;;;;;;;17.92;100.00;99863.88;108975;1254;67247;-49
2023/09/01 04:06:05;;;;;;;3.90;3.30;;;;;;;17.94;100.00;99865.91;109065;1253;73125;-49
2023/09/01 04:08:35;;;;;;;2.90;2.60;;;;;;;17.96;100.00;99867.94;109054;1253;62730;-50
2023/09/01 04:11:03;;;;;;;3.90;3.50;;;;;;;17.99;100.00;99869.15;108971;1253;60097;-49
2023/09/01 04:13:31;;;;;;;4.60;4.20;;;;;;;18.02;100.00;99862.61;106432;1260;75386;-51
2023/09/01 04:15:59;;;;;;;4.00;2.90;;;;;;;18.03;100.00;99861.98;104682;1254;67717;-48
2023/09/01 04:18:27;;;;;;;4.10;3.70;;;;;;;18.02;100.00;99863.88;104824;1256;71214;-49
2023/09/01 04:20:54;;;;;;;3.90;3.70;;;;;;;18.01;100.00;99859.77;104660;1260;61309;-53
2023/09/01 04:23:22;;;;;;;4.20;3.80;;;;;;;17.99;100.00;99862.61;106786;1254;60362;-48
2023/09/01 04:25:49;;;;;;;3.40;3.10;;;;;;;17.98;100.00;99859.23;104890;1260;74353;-49
2023/09/01 04:28:19;;;;;;;4.40;4.10;;;;;;;17.98;100.00;99855.48;108864;1254;67241;-49
2023/09/01 04:30:48;;;;;;;3.70;3.40;;;;;;;17.96;100.00;99850.52;106360;1254;72693;-49
2023/09/01 04:33:15;;;;;;;3.60;3.20;;;;;;;17.95;100.00;99845.89;104779;1257;60468;-50
2023/09/01 04:35:43;;;;;;;4.50;4.20;;;;;;;17.95;100.00;99841.15;104667;1259;60502;-51
2023/09/01 04:38:10;;;;;;;3.20;3.00;;;;;;;17.96;100.00;99836.34;104672;1254;72052;-49
2023/09/01 04:40:38;;;;;;;4.00;3.70;;;;;;;17.96;100.00;99839.06;105021;1259;65514;-48
2023/09/01 04:43:06;;;;;;;3.70;3.30;;;;;;;17.98;100.00;99839.13;105551;1255;72311;-48
2023/09/01 04:45:33;;;;;;;4.10;3.70;;;;;;;18.00;100.00;99835.88;104769;1254;60960;-52
2023/09/01 04:48:01;;;;;;;4.30;4.00;;;;;;;18.02;100.00;99837.15;104692;1260;60852;-54
2023/09/01 04:50:28;;;;;;;3.80;3.50;;;;;;;18.03;100.00;99840.67;104521;1254;73853;-50
2023/09/01 04:52:56;;;;;;;3.20;3.00;;;;;;;18.04;100.00;99846.79;104719;1254;67470;-50
2023/09/01 04:55:25;;;;;;;5.80;3.50;;;;;;;18.06;100.00;99845.21;104627;1257;72702;-49
2023/09/01 04:57:52;;;;;;;4.20;3.80;;;;;;;18.05;100.00;99850.71;105241;1254;60526;-50
2023/09/01 05:00:20;;;;;;;7.30;3.70;;;;;;;18.04;100.00;99854.59;104756;1255;60531;-48
2023/09/01 05:02:48;;;;;;;3.80;3.60;;;;;;;18.05;100.00;99856.86;104944;1259;73771;-53
2023/09/01 05:05:15;;;;;;;5.00;3.60;;;;;;;18.08;100.00;99858.29;104959;1254;65737;-53
2023/09/01 05:07:44;;;;;;;4.50;4.20;;;;;;;18.11;100.00;99864.22;105034;1260;72806;-50
2023/09/01 05:10:13;;;;;;;4.30;3.90;;;;;;;18.15;100.00;99866.63;105287;1260;60498;-49
2023/09/01 05:12:41;;;;;;;5.00;4.70;;;;;;;18.21;100.00;99867.69;104928;1254;60542;-48
2023/09/01 05:15:09;;;;;;;4.30;4.00;;;;;;;18.27;100.00;99875.56;104947;1254;73799;-49
2023/09/01 05:17:36;;;;;;;3.80;3.30;;;;;;;18.34;100.00;99884.81;104683;1254;67813;-51
2023/09/01 05:20:07;;;;;;;4.90;3.50;;;;;;;18.40;100.00;99886.88;104400;1254;73625;-51
2023/09/01 05:22:35;;;;;;;3.80;3.50;;;;;;;18.46;100.00;99895.08;104958;1259;62585;-53
2023/09/01 05:25:03;;;;;;;2.50;2.30;;;;;;;18.55;100.00;99896.20;104468;1254;60797;-51
2023/09/01 05:27:30;;;;;;;4.10;3.90;;;;;;;18.64;100.00;99904.23;104423;1253;72561;-54
2023/09/01 05:29:58;;;;;;;5.00;4.30;;;;;;;18.69;100.00;99902.42;104679;1260;67781;-49
2023/09/01 05:32:25;;;;;;;3.40;3.20;;;;;;;18.73;100.00;99902.42;104680;1257;71930;-51
2023/09/01 05:34:53;;;;;;;4.50;4.20;;;;;;;18.80;100.00;99898.19;104617;1259;61679;-49
2023/09/01 05:37:20;;;;;;;5.00;4.10;;;;;;;18.90;100.00;99898.52;104865;1254;60857;-52
2023/09/01 05:39:47;;;;;;;4.20;4.00;;;;;;;18.98;100.00;99895.12;104980;1254;73763;-49
2023/09/01 05:42:15;;;;;;;5.10;3.60;;;;;;;19.05;100.00;99895.11;105248;1259;66800;-47
2023/09/01 05:44:42;;;;;;;3.40;3.10;;;;;;;19.13;100.00;99894.06;105084;1255;71105;-52
2023/09/01 05:47:11;;;;;;;3.60;3.30;;;;;;;19.20;100.00;99892.41;105165;1256;60582;-50
2023/09/01 05:49:38;;;;;;;4.20;4.00;;;;;;;19.28;100.00;99893.21;104852;1253;60587;-50
2023/09/01 05:52:06;;;;;;;2.80;2.60;;;;;;;19.37;100.00;99891.76;104920;1254;73897;-51
2023/09/01 05:54:33;;;;;;;4.50;4.10;;;;;;;19.44;100.00;99887.52;104958;1259;65482;-49
2023/09/01 05:57:01;;;;;;;11.40;4.90;;;;;;;19.52;100.00;99887.30;104910;1256;71394;-50
2023/09/01 05:59:29;;;;;;;4.30;4.00;;;;;;;19.59;100.00;99885.37;104830;1254;60562;-53
2023/09/01 06:01:56;;;;;;;3.30;3.10;;;;;;;19.67;100.00;99887.06;105047;1254;60733;-50
2023/09/01 06:04:23;;;;;;;4.20;3.80;;;;;;;19.75;100.00;99884.41;105334;1254;72668;-51
2023/09/01 06:06:51;;;;;;;4.40;3.50;;;;;;;19.80;100.00;99886.02;105127;1254;66762;-48
2023/09/01 06:09:19;;;;;;;4.50;3.60;;;;;;;19.82;100.00;99886.69;104770;1256;71416;-48
2023/09/01 06:11:47;;;;;;;3.40;2.60;;;;;;;19.86;100.00;99888.07;104895;1255;60523;-48
2023/09/01 06:14:14;;;;;;;4.50;2.40;;;;;;;19.89;100.00;99889.20;104949;1259;61356;-48
2023/09/01 06:16:44;;;;;;;3.70;3.50;;;;;;;19.93;100.00;99892.71;104931;1257;72633;-50
2023/09/01 06:19:11;;;;;;;4.50;4.10;;;;;;;19.93;100.00;99899.24;105093;1255;67173;-54
2023/09/01 06:21:39;;;;;;;4.40;4.10;;;;;;;19.89;100.00;99896.69;104883;1254;71379;-50
2023/09/01 06:24:06;;;;;;;4.40;4.00;;;;;;;19.89;100.00;99909.26;104773;1254;60429;-48
2023/09/01 06:26:34;;;;;;;3.70;3.50;;;;;;;19.89;100.00;99911.67;104855;1254;60512;-50
2023/09/01 06:29:01;;;;;;;4.00;2.80;;;;;;;19.89;100.00;99908.19;108995;1254;73714;-49
2023/09/01 06:31:29;;;;;;;4.20;3.90;;;;;;;19.91;100.00;99906.41;109134;1254;65614;-51
2023/09/01 06:33:56;;;;;;;2.40;2.20;;;;;;;19.95;100.00;99904.20;106187;1257;72808;-48
2023/09/01 06:36:24;;;;;;;5.00;3.30;;;;;;;20.03;100.00;99902.08;104880;1254;60457;-52
2023/09/01 06:38:51;;;;;;;4.20;2.90;;;;;;;20.14;100.00;99903.63;105036;1257;60588;-51
2023/09/01 06:41:18;;;;;;;4.10;3.80;;;;;;;20.26;100.00;99899.55;104723;1254;74517;-54
2023/09/01 06:43:46;;;;;;;3.40;3.10;;;;;;;20.34;100.00;99901.59;104918;1259;65523;-48
2023/09/01 06:46:14;;;;;;;3.80;3.50;;;;;;;20.37;100.00;99898.24;104805;1254;72908;-50
2023/09/01 06:48:43;;;;;;;3.90;2.90;;;;;;;20.44;100.00;99893.48;104761;1259;60596;-51
2023/09/01 06:51:10;;;;;;;2.60;2.20;;;;;;;20.52;100.00;99892.59;109043;1253;60080;-51
2023/09/01 06:53:38;;;;;;;3.00;2.80;;;;;;;20.60;100.00;99898.80;108833;1254;74286;-51
2023/09/01 06:56:05;;;;;;;2.70;2.40;;;;;;;20.68;100.00;99896.61;109127;1254;67268;-55
2023/09/01 06:58:32;;;;;;;4.90;3.30;;;;;;;20.77;100.00;99900.73;109080;1254;72732;-52
2023/09/01 07:01:11;;;;;;;3.60;3.10;;;;;;;20.86;100.00;99904.69;109131;1253;60464;-52
2023/09/01 07:03:38;;;;;;;2.90;2.80;;;;;;;20.89;100.00;99901.16;108738;1254;59399;-50
2023/09/01 07:06:06;;;;;;;2.90;2.70;;;;;;;20.89;100.00;99901.17;105001;1254;74438;-52
2023/09/01 07:08:33;;;;;;;4.90;3.70;;;;;;;20.89;100.00;99899.35;105059;1259;65737;-48
2023/09/01 07:11:05;;;;;;;2.70;2.50;;;;;;;20.90;100.00;99900.69;104884;1253;72352;-49
2023/09/01 07:13:32;;;;;;;2.90;2.70;;;;;;;20.92;100.00;99906.14;104881;1259;61646;-51
2023/09/01 07:18:36;;;;;;;5.70;2.70;;;;;;;20.87;100.00;99966.78;101947;1291;600536;-50
2023/09/01 07:21:03;;;;;;;2.40;2.20;;;;;;;20.83;100.00;99961.16;104561;1259;59337;-49
2023/09/01 07:23:31;;;;;;;2.80;2.60;;;;;;;20.84;100.00;99952.30;104673;1260;60123;-49
2023/09/01 07:25:59;;;;;;;3.10;3.00;;;;;;;20.88;100.00;99946.64;104592;1260;71674;-49
2023/09/01 07:28:26;;;;;;;4.80;2.60;;;;;;;20.93;100.00;99944.36;104694;1260;66150;-51
2023/09/01 07:30:53;;;;;;;2.70;2.50;;;;;;;20.99;100.00;99945.14;104589;1259;72412;-48
2023/09/01 07:33:21;;;;;;;4.10;2.80;;;;;;;21.04;100.00;99947.73;104778;1256;198242;-50
2023/09/01 07:35:48;;;;;;;2.30;2.10;;;;;;;21.08;100.00;99944.89;104508;1259;59449;-54
2023/09/01 07:38:16;;;;;;;2.40;2.20;;;;;;;21.12;100.00;99940.66;104832;1262;70985;-49
2023/09/01 07:40:44;;;;;;;2.60;2.40;;;;;;;21.17;100.00;99941.89;104863;1261;67878;-51
2023/09/01 07:43:11;;;;;;;3.50;2.30;;;;;;;21.20;100.00;99942.02;104688;1262;74488;-50
2023/09/01 07:45:39;;;;;;;3.40;2.30;;;;;;;21.24;100.00;99938.96;104896;1256;60557;-51
2023/09/01 07:48:08;;;;;;;2.10;2.00;;;;;;;21.26;100.00;99942.07;104977;1257;60028;-51
2023/09/01 07:50:49;;;;;;;3.70;2.70;;;;;;;21.26;100.00;99940.60;104721;1257;73523;-50
2023/09/01 07:53:17;;;;;;;3.90;2.20;;;;;;;21.24;100.00;99934.55;104785;1256;66608;-51
2023/09/01 07:55:44;;;;;;;2.70;2.20;;;;;;;21.25;100.00;99933.91;104978;1256;72639;-50
2023/09/01 07:58:11;;;;;;;3.70;2.50;;;;;;;21.29;100.00;99928.96;104888;1260;60345;-50
2023/09/01 08:00:40;;;;;;;1.70;1.60;;;;;;;21.34;100.00;99924.48;105130;1264;62591;-47
2023/09/01 08:03:10;;;;;;;2.50;2.40;;;;;;;21.42;100.00;99923.77;105376;1262;73073;-49
2023/09/01 08:05:39;;;;;;;1.90;1.80;;;;;;;21.52;100.00;99922.85;105452;1256;67784;-50
2023/09/01 08:08:07;;;;;;;2.70;2.30;;;;;;;21.61;100.00;99924.62;105103;1260;72932;-53
2023/09/01 08:10:35;;;;;;;2.10;2.00;;;;;;;21.68;100.00;99921.23;108889;1254;60012;-51
2023/09/01 08:13:05;;;;;;;3.70;2.10;;;;;;;21.73;100.00;99928.79;107443;1253;60487;-49
2023/09/01 08:15:32;;;;;;;2.00;1.90;;;;;;;21.79;100.00;99931.88;105061;1255;73100;-50
2023/09/01 08:17:59;;;;;;;2.30;2.20;;;;;;;21.86;100.00;99934.89;105068;1259;67319;-50
2023/09/01 08:20:27;;;;;;;2.00;1.90;;;;;;;21.94;100.00;99941.65;105178;1257;73533;-50
2023/09/01 08:22:54;;;;;;;2.40;2.00;;;;;;;22.00;100.00;99945.84;104518;1258;61641;-50
2023/09/01 08:25:21;;;;;;;1.80;1.70;;;;;;;22.06;100.00;99948.53;104964;1257;59629;-52
2023/09/01 08:27:49;;;;;;;1.70;1.40;;;;;;;22.12;100.00;99949.49;104974;1254;71458;-50
2023/09/01 08:30:16;;;;;;;1.70;1.60;;;;;;;22.18;100.00;99947.77;104916;1256;65526;-51
2023/09/01 08:32:44;;;;;;;2.30;2.20;;;;;;;22.25;100.00;99948.64;104927;1255;73108;-47
2023/09/01 08:35:11;;;;;;;2.50;2.40;;;;;;;22.30;100.00;99947.81;105677;1253;59733;-52
2023/09/01 08:37:39;;;;;;;2.70;2.50;;;;;;;22.35;100.00;99951.85;105348;1253;60449;-48
2023/09/01 08:40:09;;;;;;;1.80;1.70;;;;;;;22.36;100.00;99949.60;104874;1258;73021;-53
2023/09/01 08:42:45;;;;;;;2.30;1.80;;;;;;;22.38;100.00;99960.73;104939;1256;65770;-49
2023/09/01 08:45:16;;;;;;;2.40;2.20;;;;;;;22.41;100.00;99966.52;105234;1253;73100;-49
2023/09/01 08:47:45;;;;;;;2.00;1.90;;;;;;;22.42;100.00;99964.95;105728;1258;59919;-48
2023/09/01 08:50:13;;;;;;;2.40;2.20;;;;;;;22.45;100.00;99964.43;105710;1258;59686;-49
2023/09/01 08:52:45;;;;;;;2.50;2.30;;;;;;;22.46;100.00;99961.66;106277;1253;71051;-50
2023/09/01 08:55:12;;;;;;;2.50;2.40;;;;;;;22.47;100.00;99968.49;104942;1253;65500;-49
2023/09/01 08:57:40;;;;;;;2.60;2.50;;;;;;;22.50;100.00;99969.31;105082;1256;71680;-48
2023/09/01 09:00:08;;;;;;;2.30;2.10;;;;;;;22.54;100.00;99968.52;104966;1256;59768;-51
2023/09/01 09:02:45;;;;;;;2.90;2.70;;;;;;;22.60;100.00;99969.38;104955;1257;59621;-53
2023/09/01 09:05:33;;;;;;;2.60;2.40;;;;;;;22.66;100.00;99971.04;104843;1253;73449;-49
2023/09/01 09:08:03;;;;;;;2.70;2.50;;;;;;;22.68;100.00;99972.55;105084;1253;65680;-49
2023/09/01 09:10:37;;;;;;;2.90;2.70;;;;;;;22.69;100.00;99977.73;105437;1258;72626;-49
2023/09/01 09:13:25;;;;;;;2.30;2.20;;;;;;;22.73;100.00;99983.41;105011;1258;59766;-48
2023/09/01 09:16:13;;;;;;;2.60;2.50;;;;;;;22.80;100.00;99981.14;104960;1253;59561;-49
2023/09/01 09:18:42;;;;;;;2.00;1.90;;;;;;;22.83;100.00;99981.16;108968;1253;71561;-49
2023/09/01 09:21:29;;;;;;;2.00;1.80;;;;;;;22.82;100.00;99978.71;106512;1257;67937;-49
2023/09/01 09:24:01;;;;;;;1.80;1.60;;;;;;;22.84;100.00;99982.55;104835;1257;72364;-50
2023/09/01 09:26:31;;;;;;;3.20;2.00;;;;;;;22.87;100.00;99985.20;104693;1258;60554;-50
2023/09/01 09:29:05;;;;;;;4.30;1.40;;;;;;;22.92;100.00;99978.98;104933;1257;59612;-47
2023/09/01 09:31:36;;;;;;;2.20;1.50;;;;;;;23.02;100.00;99985.77;108957;1254;73565;-54
2023/09/01 09:34:17;;;;;;;1.30;1.20;;;;;;;23.12;100.00;99987.91;109022;1253;66963;-53
2023/09/01 09:36:45;;;;;;;1.60;1.40;;;;;;;23.19;100.00;99994.73;109133;1253;72693;-52
2023/09/01 09:39:26;;;;;;;1.70;1.60;;;;;;;23.16;100.00;99999.75;109095;1253;60154;-51
2023/09/01 09:41:54;;;;;;;1.70;1.50;;;;;;;23.12;100.00;100004.88;109171;1258;59974;-50
2023/09/01 09:44:33;;;;;;;1.80;1.70;;;;;;;23.16;100.00;100002.35;108952;1254;72779;-54
2023/09/01 09:47:03;;;;;;;1.90;1.80;;;;;;;23.18;100.00;100011.24;109013;1254;66447;-52
2023/09/01 09:49:30;;;;;;;3.10;2.30;;;;;;;23.20;100.00;100011.11;108960;1253;72647;-48
2023/09/01 09:51:59;;;;;;;2.20;2.10;;;;;;;23.22;100.00;100008.34;109103;1253;59324;-51
2023/09/01 09:54:28;;;;;;;2.40;2.20;;;;;;;23.28;100.00;100013.80;109164;1253;58701;-51
2023/09/01 09:56:56;;;;;;;2.80;2.60;;;;;;;23.34;100.00;100012.61;108988;1253;73721;-53
2023/09/01 09:59:28;;;;;;;2.10;2.00;;;;;;;23.41;100.00;100017.63;106577;1258;66870;-50
2023/09/01 10:01:56;;;;;;;2.20;2.10;;;;;;;23.44;100.00;100026.35;108764;1253;71416;-51
2023/09/01 10:04:23;;;;;;;2.50;2.40;;;;;;;23.46;100.00;100023.06;108938;1253;60092;-49
2023/09/01 10:06:51;;;;;;;2.40;2.30;;;;;;;23.50;100.00;100028.10;105786;1253;60412;-48
2023/09/01 10:09:18;;;;;;;2.00;1.90;;;;;;;23.53;100.00;100033.51;104970;1253;71815;-48
2023/09/01 10:11:46;;;;;;;2.80;1.80;;;;;;;23.57;100.00;100035.83;104668;1259;68164;-50
2023/09/01 10:14:13;;;;;;;1.70;1.60;;;;;;;23.64;100.00;100036.27;104584;1256;71246;-52
2023/09/01 10:16:42;;;;;;;1.60;1.50;;;;;;;23.68;100.00;100032.23;104736;1255;60656;-49
2023/09/01 10:19:11;;;;;;;1.60;1.50;;;;;;;23.69;100.00;100036.16;104643;1255;59630;-52
2023/09/01 10:21:40;;;;;;;1.50;1.20;;;;;;;23.69;100.00;100042.36;104316;1256;72976;-50
2023/09/01 10:24:14;;;;;;;1.00;0.90;;;;;;;23.71;100.00;100037.98;104612;1253;66771;-49
2023/09/01 10:26:41;;;;;;;5.60;2.10;;;;;;;23.74;100.00;100042.63;108624;1258;70944;-52
2023/09/01 10:29:08;;;;;;;1.80;1.60;;;;;;;23.79;100.00;100049.66;104646;1259;60551;-50
2023/09/01 10:31:36;;;;;;;1.70;1.60;;;;;;;23.83;100.00;100047.41;104486;1256;60126;-50
2023/09/01 10:34:05;;;;;;;1.70;1.60;;;;;;;23.84;100.00;100048.02;105057;1253;71710;-48
2023/09/01 10:36:32;;;;;;;1.60;1.50;;;;;;;23.82;100.00;100042.55;104985;1261;65516;-54
2023/09/01 10:39:24;;;;;;;1.70;1.60;;;;;;;23.85;100.00;100044.45;104658;1257;70984;-52
2023/09/01 10:42:02;;;;;;;2.20;2.00;;;;;;;23.90;100.00;100050.13;106728;1253;60296;-49
2023/09/01 10:44:39;;;;;;;3.60;1.60;;;;;;;23.93;100.00;100050.95;105260;1259;60006;-50
2023/09/01 10:47:32;;;;;;;1.60;1.50;;;;;;;23.87;100.00;100055.59;104840;1259;73060;-53
2023/09/01 10:50:03;;;;;;;1.40;1.30;;;;;;;23.83;100.00;100055.98;104616;1253;65826;-50
2023/09/01 10:52:34;;;;;;;1.60;1.50;;;;;;;23.78;100.00;100057.05;106337;1257;71412;-54
2023/09/01 10:55:04;;;;;;;1.80;1.50;;;;;;;23.72;100.00;100058.60;104769;1257;61052;-52
2023/09/01 10:57:42;;;;;;;1.20;1.10;;;;;;;23.66;100.00;100052.91;104996;1254;59782;-48
2023/09/01 11:00:29;;;;;;;1.20;1.10;;;;;;;23.64;100.00;100055.36;104647;1257;71778;-48
2023/09/01 11:03:38;;;;;;;1.20;1.10;;;;;;;23.60;100.00;100061.61;105009;1259;68183;-47
2023/09/01 11:06:05;;;;;;;1.80;1.70;;;;;;;23.61;100.00;100056.73;105045;1263;71881;-50
2023/09/01 11:08:33;;;;;;;1.40;1.30;;;;;;;23.63;100.00;100062.17;104553;1262;61092;-49
2023/09/01 11:11:10;;;;;;;1.60;1.50;;;;;;;23.60;100.00;100063.07;104476;1261;59663;-51
2023/09/01 11:13:37;;;;;;;1.60;1.50;;;;;;;23.53;100.00;100066.47;104946;1256;73542;-48
2023/09/01 11:16:08;;;;;;;2.00;1.40;;;;;;;23.45;100.00;100061.41;104864;1253;66848;-49
2023/09/01 11:18:36;;;;;;;1.60;1.50;;;;;;;23.40;100.00;100066.05;104645;1254;71493;-50
2023/09/01 11:21:07;;;;;;;2.90;1.30;;;;;;;23.35;100.00;100067.96;104643;1259;59758;-52
2023/09/01 11:23:34;;;;;;;1.30;1.20;;;;;;;23.35;100.00;100070.16;104819;1256;60583;-51
2023/09/01 11:26:03;;;;;;;2.10;1.40;;;;;;;23.37;100.00;100068.16;104747;1254;72955;-49
2023/09/01 11:28:30;;;;;;;1.70;1.50;;;;;;;23.42;100.00;100064.04;105612;1253;67158;-52
2023/09/01 11:31:04;;;;;;;1.20;1.10;;;;;;;23.44;100.00;100067.39;105108;1256;72648;-53